Startpagina
METAR-TAF:

METAR-TAF

Vliegvelden :

Aeroport de Girona-Costa Brava

Gerona, Spanje

breedte: 41-54N, lengte: 002-46E, hoogte: 143 m

Actueel weer

Dit bericht is 28 minuten geleden gemaakt, om 09:00 UTC
Weinig wind
Temperatuur 7°C
Vochtigheid 81%
Druk 1025 hPa
Zicht 10 km of meer
geen wolken onder 1500 m en geen cumulonimbus

METAR: LEGE 270900Z 00000KT CAVOK 07/04 Q1025

Tijdstip: 10:28 (09:28 UTC)

Verwachting

Dit bericht is 4 uur en het 28 minuten geleden gemaakt, om 05:00 UTC
Verwachting geldig van 27 om 06 UTC tot 28 om 06 UTC
Wind 3 kt uit variabele richting
Zicht 10 km of meer
geen wolken onder 1500 m en geen cumulonimbus
Kans 40% :
Tijdelijke
van 27 om 06 UTC tot 27 om 08 UTC
Zicht: 3000 m
Gebroken wolken op 1000 ft
nevel
Wijzigt naar
van 27 om 10 UTC tot 27 om 12 UTC
Wind 12 kt uit het zuidzuidwesten

TAF: LEGE 270500Z 2706/2806 VRB03KT CAVOK TX17/2713Z TN05/2805Z PROB40 TEMPO 2706/2708 3000 BR BKN010 BECMG 2710/2712 20012KT

Waarnemingen en weersverwachtingen van meer dan 4000 vliegvelden (METAR en TAF).

De beschikbare stations zijn de gele en rode punten op de kaart.

Ga met uw muis naar het station om de naam te zien.

Klik dan om waarnemingen en weersverwachtingen te zien.

kaart wijzigen: klik op de groene knoppen met een zwart kruis om in te zoomen, op de groene knop met een streepje om uit te zoomen of op de groene pijlen voor aangrenzende kaarten.


METAR-TAF: